createdAt,value
2022-12-01T00:00:02.442Z,1.0
2022-12-01T00:10:01.226Z,1.2
2022-12-01T00:20:00.123Z,1.2
2022-12-01T00:30:01.001Z,1.3
2022-12-01T00:40:01.232Z,1.3
2022-12-01T01:00:00.966Z,0.8
2022-12-01T01:10:01.016Z,1.1
2022-12-01T01:20:01.569Z,0.9
2022-12-01T01:30:01.017Z,1.1
2022-12-01T01:40:01.224Z,1.0
2022-12-01T01:50:01.112Z,0.9
2022-12-01T02:00:01.444Z,1.0
2022-12-01T02:10:01.045Z,0.9
2022-12-01T02:20:02.900Z,0.8
2022-12-01T02:30:00.161Z,0.6
2022-12-01T02:40:01.480Z,0.6
2022-12-01T02:50:00.161Z,0.7
2022-12-01T03:00:01.093Z,0.7
2022-12-01T03:10:00.848Z,0.2
2022-12-01T03:20:01.037Z,0.3
2022-12-01T03:30:01.565Z,0.1
2022-12-01T03:40:01.697Z,-0.0
2022-12-01T04:00:00.978Z,0.0
2022-12-01T04:10:01.018Z,-0.1
2022-12-01T04:20:00.979Z,0.2
2022-12-01T04:30:01.241Z,0.1
2022-12-01T04:40:02.131Z,-0.1
2022-12-01T04:50:01.065Z,0.1
2022-12-01T05:00:01.250Z,0.1
2022-12-01T05:10:01.505Z,0.0
2022-12-01T05:20:01.316Z,-0.0
2022-12-01T05:30:01.351Z,0.2
2022-12-01T05:40:01.229Z,0.1
2022-12-01T05:50:05.389Z,0.4
2022-12-01T06:00:00.886Z,0.3
2022-12-01T06:10:01.026Z,0.1
2022-12-01T06:20:01.010Z,0.1
2022-12-01T06:30:01.868Z,0.3
2022-12-01T06:40:00.975Z,0.0
2022-12-01T06:50:01.082Z,0.3
2022-12-01T07:00:01.670Z,0.6
2022-12-01T07:10:00.161Z,0.6
2022-12-01T07:20:00.140Z,0.8
2022-12-01T07:30:01.209Z,0.7
2022-12-01T07:40:02.385Z,0.7
2022-12-01T07:50:00.159Z,0.9
2022-12-01T08:00:01.652Z,1.9
2022-12-01T08:10:01.267Z,2.5
2022-12-01T08:20:01.009Z,1.4
2022-12-01T08:30:01.678Z,0.9
2022-12-01T08:40:01.637Z,1.2
2022-12-01T08:50:01.348Z,0.9
2022-12-01T09:00:01.726Z,0.9
2022-12-01T09:10:01.516Z,0.9
2022-12-01T09:20:02.828Z,1.1
2022-12-01T09:30:01.099Z,0.9
2022-12-01T09:40:00.137Z,1.1
2022-12-01T09:50:00.205Z,1.1
2022-12-01T10:00:01.123Z,0.9
2022-12-01T10:10:03.422Z,0.8
2022-12-01T10:20:01.555Z,0.9
2022-12-01T10:30:01.502Z,1.3
2022-12-01T10:40:01.227Z,1.4
2022-12-01T10:50:01.298Z,1.4
2022-12-01T11:00:01.249Z,1.0
2022-12-01T11:10:01.041Z,0.9
2022-12-01T11:20:01.302Z,1.4
2022-12-01T11:30:01.105Z,1.7
2022-12-01T11:40:00.997Z,1.7
2022-12-01T11:50:00.193Z,1.5
2022-12-01T12:00:01.059Z,1.4
2022-12-01T12:10:00.996Z,1.6
2022-12-01T12:20:09.576Z,1.4
2022-12-01T12:30:01.268Z,1.7
2022-12-01T12:40:01.011Z,1.5
2022-12-01T12:50:01.348Z,1.4
2022-12-01T13:00:03.864Z,1.5
2022-12-01T13:10:00.910Z,1.4
2022-12-01T13:20:01.346Z,1.5
2022-12-01T13:30:01.689Z,1.3
2022-12-01T13:40:02.343Z,1.5
2022-12-01T13:50:01.365Z,1.5
2022-12-01T14:00:01.232Z,1.6
2022-12-01T14:10:01.561Z,1.5
2022-12-01T14:20:03.327Z,1.3
2022-12-01T14:30:01.322Z,1.4
2022-12-01T14:40:01.071Z,1.4
2022-12-01T14:50:00.968Z,1.4
2022-12-01T15:00:01.314Z,1.4
2022-12-01T15:10:01.487Z,1.4
2022-12-01T15:20:01.605Z,1.4
2022-12-01T15:30:01.317Z,1.6
2022-12-01T15:50:00.984Z,1.5
2022-12-01T16:00:02.076Z,1.5
2022-12-01T16:10:01.341Z,1.5
2022-12-01T16:20:00.130Z,1.4
2022-12-01T16:30:01.183Z,1.1
2022-12-01T16:40:01.047Z,1.2
2022-12-01T16:50:00.228Z,1.1
2022-12-01T17:00:02.263Z,1.1
2022-12-01T17:10:00.201Z,1.0
2022-12-01T17:20:01.267Z,1.1
2022-12-01T17:30:00.150Z,0.9
2022-12-01T17:40:02.185Z,0.8
2022-12-01T17:50:01.096Z,0.9
2022-12-01T18:00:01.041Z,0.9
2022-12-01T18:10:00.146Z,0.9
2022-12-01T18:20:01.298Z,1.0
2022-12-01T18:30:00.318Z,1.1
2022-12-01T18:40:01.181Z,1.2
2022-12-01T19:00:01.677Z,1.2
2022-12-01T19:10:02.710Z,1.2
2022-12-01T19:20:01.267Z,1.2
2022-12-01T19:30:02.146Z,1.4
2022-12-01T19:40:01.512Z,1.5
2022-12-01T19:50:01.746Z,1.3
2022-12-01T20:00:01.719Z,1.4
2022-12-01T20:10:00.188Z,1.2
2022-12-01T20:20:01.075Z,1.3
2022-12-01T20:30:02.183Z,1.3
2022-12-01T20:40:01.531Z,1.3
2022-12-01T20:50:01.629Z,1.3
2022-12-01T21:00:01.087Z,1.4
2022-12-01T21:10:01.963Z,1.4
2022-12-01T21:20:01.260Z,1.4
2022-12-01T21:30:01.027Z,1.4
2022-12-01T21:40:00.145Z,1.5
2022-12-01T21:50:01.063Z,1.5
2022-12-01T22:00:00.138Z,1.4
2022-12-01T22:10:04.862Z,1.5
2022-12-01T22:20:01.548Z,1.5
2022-12-01T22:30:01.509Z,1.5
2022-12-01T22:40:01.974Z,1.6
2022-12-01T22:50:01.103Z,1.6
2022-12-01T23:00:04.238Z,1.5
2022-12-01T23:10:01.048Z,1.6
2022-12-01T23:20:01.217Z,1.6
2022-12-01T23:30:01.295Z,1.5
2022-12-01T23:40:02.366Z,1.5
2022-12-01T23:50:01.327Z,1.5
